sensor_id;sensor_type;location;lat;lon;timestamp;pressure;altitude;pressure_sealevel;temperature;humidity
4981;BME280;2507;50.392;7.482;2023-02-22T00:00:39;100784.72;;;5.94;81.96
4981;BME280;2507;50.392;7.482;2023-02-22T00:05:37;100789.78;;;5.78;83.07
4981;BME280;2507;50.392;7.482;2023-02-22T00:08:09;100784.72;;;5.75;82.85
4981;BME280;2507;50.392;7.482;2023-02-22T00:10:35;100783.09;;;5.73;82.77
4981;BME280;2507;50.392;7.482;2023-02-22T00:13:03;100791.06;;;5.70;82.07
4981;BME280;2507;50.392;7.482;2023-02-22T00:15:29;100787.69;;;5.68;82.11
4981;BME280;2507;50.392;7.482;2023-02-22T00:17:54;100792.28;;;5.63;82.57
4981;BME280;2507;50.392;7.482;2023-02-22T00:20:22;100791.44;;;5.44;82.62
4981;BME280;2507;50.392;7.482;2023-02-22T00:22:48;100791.75;;;5.19;82.97
4981;BME280;2507;50.392;7.482;2023-02-22T00:25:18;100787.75;;;5.12;83.79
4981;BME280;2507;50.392;7.482;2023-02-22T00:27:44;100783.75;;;5.24;83.66
4981;BME280;2507;50.392;7.482;2023-02-22T00:30:17;100787.31;;;5.21;83.25
4981;BME280;2507;50.392;7.482;2023-02-22T00:32:44;100779.59;;;5.19;83.20
4981;BME280;2507;50.392;7.482;2023-02-22T00:35:11;100777.13;;;5.16;83.19
4981;BME280;2507;50.392;7.482;2023-02-22T00:37:37;100776.22;;;5.17;83.69
4981;BME280;2507;50.392;7.482;2023-02-22T00:40:08;100776.22;;;5.17;83.55
4981;BME280;2507;50.392;7.482;2023-02-22T00:42:33;100775.38;;;5.17;83.30
4981;BME280;2507;50.392;7.482;2023-02-22T00:44:58;100771.56;;;5.05;83.06
4981;BME280;2507;50.392;7.482;2023-02-22T00:47:24;100772.91;;;4.95;83.98
4981;BME280;2507;50.392;7.482;2023-02-22T00:49:50;100766.63;;;4.81;84.07
4981;BME280;2507;50.392;7.482;2023-02-22T00:52:15;100767.91;;;4.72;84.68
4981;BME280;2507;50.392;7.482;2023-02-22T00:54:41;100773.31;;;4.86;84.57
4981;BME280;2507;50.392;7.482;2023-02-22T00:57:06;100762.34;;;4.98;83.84
4981;BME280;2507;50.392;7.482;2023-02-22T00:59:32;100763.00;;;5.03;83.58
4981;BME280;2507;50.392;7.482;2023-02-22T01:01:57;100754.44;;;5.01;83.24
4981;BME280;2507;50.392;7.482;2023-02-22T01:04:22;100751.84;;;5.01;83.26
4981;BME280;2507;50.392;7.482;2023-02-22T01:06:47;100754.72;;;4.95;82.77
4981;BME280;2507;50.392;7.482;2023-02-22T01:09:13;100753.31;;;4.88;83.84
4981;BME280;2507;50.392;7.482;2023-02-22T01:11:38;100755.28;;;4.83;84.22
4981;BME280;2507;50.392;7.482;2023-02-22T01:14:03;100752.66;;;4.83;84.56
4981;BME280;2507;50.392;7.482;2023-02-22T01:16:28;100745.91;;;4.79;84.37
4981;BME280;2507;50.392;7.482;2023-02-22T01:18:54;100748.50;;;4.79;84.37
4981;BME280;2507;50.392;7.482;2023-02-22T01:21:19;100744.03;;;4.83;84.26
4981;BME280;2507;50.392;7.482;2023-02-22T01:23:45;100734.06;;;4.92;84.47
4981;BME280;2507;50.392;7.482;2023-02-22T01:26:11;100737.63;;;5.08;84.84
4981;BME280;2507;50.392;7.482;2023-02-22T01:28:37;100741.38;;;5.22;84.20
4981;BME280;2507;50.392;7.482;2023-02-22T01:31:03;100737.56;;;5.29;83.72
4981;BME280;2507;50.392;7.482;2023-02-22T01:33:28;100738.53;;;5.26;83.34
4981;BME280;2507;50.392;7.482;2023-02-22T01:35:54;100725.88;;;5.37;84.34
4981;BME280;2507;50.392;7.482;2023-02-22T01:38:19;100730.09;;;5.57;83.50
4981;BME280;2507;50.392;7.482;2023-02-22T01:40:49;100732.72;;;5.57;83.29
4981;BME280;2507;50.392;7.482;2023-02-22T01:48:24;100717.22;;;5.72;84.14
4981;BME280;2507;50.392;7.482;2023-02-22T01:50:58;100720.06;;;5.85;82.86
4981;BME280;2507;50.392;7.482;2023-02-22T01:53:30;100708.47;;;5.56;80.74
4981;BME280;2507;50.392;7.482;2023-02-22T01:55:58;100714.56;;;5.19;81.21
4981;BME280;2507;50.392;7.482;2023-02-22T01:58:25;100712.91;;;5.00;82.10
4981;BME280;2507;50.392;7.482;2023-02-22T02:00:51;100710.69;;;4.91;82.57
4981;BME280;2507;50.392;7.482;2023-02-22T02:03:21;100709.88;;;4.90;83.01
4981;BME280;2507;50.392;7.482;2023-02-22T02:05:51;100713.81;;;4.99;83.13
4981;BME280;2507;50.392;7.482;2023-02-22T02:08:43;100704.50;;;5.31;82.43
4981;BME280;2507;50.392;7.482;2023-02-22T02:11:15;100711.19;;;5.53;81.60
4981;BME280;2507;50.392;7.482;2023-02-22T02:13:42;100702.00;;;5.46;81.34
4981;BME280;2507;50.392;7.482;2023-02-22T02:16:07;100700.72;;;5.55;81.35
4981;BME280;2507;50.392;7.482;2023-02-22T02:18:33;100697.72;;;5.62;81.34
4981;BME280;2507;50.392;7.482;2023-02-22T02:35:12;100685.50;;;6.15;79.92
4981;BME280;2507;50.392;7.482;2023-02-22T02:37:50;100682.00;;;5.99;79.47
4981;BME280;2507;50.392;7.482;2023-02-22T02:41:09;100680.41;;;5.97;80.67
4981;BME280;2507;50.392;7.482;2023-02-22T02:43:36;100673.25;;;6.00;81.00
4981;BME280;2507;50.392;7.482;2023-02-22T02:46:14;100676.34;;;6.08;81.73
4981;BME280;2507;50.392;7.482;2023-02-22T02:48:48;100674.59;;;6.09;81.35
4981;BME280;2507;50.392;7.482;2023-02-22T02:51:16;100678.84;;;5.93;81.37
4981;BME280;2507;50.392;7.482;2023-02-22T02:53:45;100677.31;;;5.72;82.35
4981;BME280;2507;50.392;7.482;2023-02-22T02:56:11;100682.19;;;5.61;83.02
4981;BME280;2507;50.392;7.482;2023-02-22T02:58:48;100674.91;;;5.67;82.84
4981;BME280;2507;50.392;7.482;2023-02-22T03:04:17;100676.38;;;5.73;82.66
4981;BME280;2507;50.392;7.482;2023-02-22T03:13:16;100689.34;;;5.74;84.57
4981;BME280;2507;50.392;7.482;2023-02-22T03:15:49;100672.19;;;5.87;84.24
4981;BME280;2507;50.392;7.482;2023-02-22T03:18:41;100678.56;;;5.99;84.45
4981;BME280;2507;50.392;7.482;2023-02-22T03:26:55;100673.09;;;6.53;82.25
4981;BME280;2507;50.392;7.482;2023-02-22T03:29:25;100670.75;;;6.64;80.99
4981;BME280;2507;50.392;7.482;2023-02-22T03:31:57;100675.06;;;6.65;81.06
4981;BME280;2507;50.392;7.482;2023-02-22T03:34:28;100672.53;;;6.79;80.47
4981;BME280;2507;50.392;7.482;2023-02-22T03:37:30;100670.09;;;6.92;79.27
4981;BME280;2507;50.392;7.482;2023-02-22T03:39:59;100671.84;;;6.91;79.42
4981;BME280;2507;50.392;7.482;2023-02-22T03:42:29;100665.47;;;6.97;79.18
4981;BME280;2507;50.392;7.482;2023-02-22T03:44:58;100668.66;;;6.86;79.08
4981;BME280;2507;50.392;7.482;2023-02-22T03:47:33;100659.25;;;6.68;80.21
4981;BME280;2507;50.392;7.482;2023-02-22T03:50:07;100660.34;;;6.80;79.90
4981;BME280;2507;50.392;7.482;2023-02-22T03:52:33;100667.00;;;6.85;79.94
4981;BME280;2507;50.392;7.482;2023-02-22T03:54:59;100672.28;;;6.99;79.50
4981;BME280;2507;50.392;7.482;2023-02-22T03:59:56;100664.72;;;6.79;79.64
4981;BME280;2507;50.392;7.482;2023-02-22T04:02:22;100662.78;;;6.83;80.03
4981;BME280;2507;50.392;7.482;2023-02-22T04:04:48;100660.50;;;6.77;80.20
4981;BME280;2507;50.392;7.482;2023-02-22T04:07:13;100665.97;;;6.88;80.75
4981;BME280;2507;50.392;7.482;2023-02-22T04:09:39;100659.25;;;6.99;80.12
4981;BME280;2507;50.392;7.482;2023-02-22T04:12:04;100656.13;;;6.93;80.42
4981;BME280;2507;50.392;7.482;2023-02-22T04:14:30;100659.16;;;7.01;80.02
4981;BME280;2507;50.392;7.482;2023-02-22T04:16:55;100652.34;;;6.83;79.63
4981;BME280;2507;50.392;7.482;2023-02-22T04:19:20;100659.97;;;6.55;80.90
4981;BME280;2507;50.392;7.482;2023-02-22T04:21:46;100657.16;;;6.42;81.56
4981;BME280;2507;50.392;7.482;2023-02-22T04:24:12;100664.47;;;6.36;82.60
4981;BME280;2507;50.392;7.482;2023-02-22T04:26:37;100663.91;;;6.13;82.91
4981;BME280;2507;50.392;7.482;2023-02-22T04:29:03;100657.81;;;5.97;84.33
4981;BME280;2507;50.392;7.482;2023-02-22T04:31:29;100662.47;;;5.91;84.52
4981;BME280;2507;50.392;7.482;2023-02-22T04:33:55;100656.41;;;6.07;85.40
4981;BME280;2507;50.392;7.482;2023-02-22T04:36:20;100661.03;;;6.35;83.73
4981;BME280;2507;50.392;7.482;2023-02-22T04:38:46;100652.94;;;6.24;83.71
4981;BME280;2507;50.392;7.482;2023-02-22T04:41:12;100657.09;;;6.11;84.07
4981;BME280;2507;50.392;7.482;2023-02-22T04:43:37;100656.66;;;6.03;84.12
4981;BME280;2507;50.392;7.482;2023-02-22T04:46:03;100656.75;;;5.84;85.03
4981;BME280;2507;50.392;7.482;2023-02-22T04:48:29;100656.16;;;5.61;85.54
4981;BME280;2507;50.392;7.482;2023-02-22T04:50:54;100669.94;;;5.46;86.70
4981;BME280;2507;50.392;7.482;2023-02-22T04:53:20;100658.63;;;5.64;86.29
4981;BME280;2507;50.392;7.482;2023-02-22T04:55:45;100656.53;;;5.89;86.47
4981;BME280;2507;50.392;7.482;2023-02-22T04:58:10;100655.59;;;6.07;84.44
4981;BME280;2507;50.392;7.482;2023-02-22T05:00:35;100662.72;;;6.03;84.44
4981;BME280;2507;50.392;7.482;2023-02-22T05:03:01;100658.31;;;6.04;84.58
4981;BME280;2507;50.392;7.482;2023-02-22T05:05:26;100655.84;;;5.85;84.85
4981;BME280;2507;50.392;7.482;2023-02-22T05:07:51;100653.13;;;5.70;85.65
4981;BME280;2507;50.392;7.482;2023-02-22T05:10:17;100653.13;;;5.70;85.77
4981;BME280;2507;50.392;7.482;2023-02-22T05:12:43;100654.19;;;5.66;86.11
4981;BME280;2507;50.392;7.482;2023-02-22T05:15:09;100645.84;;;5.76;85.84
4981;BME280;2507;50.392;7.482;2023-02-22T05:17:35;100646.31;;;6.01;85.50
4981;BME280;2507;50.392;7.482;2023-02-22T05:20:01;100641.75;;;6.22;84.67
4981;BME280;2507;50.392;7.482;2023-02-22T05:22:27;100644.69;;;6.16;83.40
4981;BME280;2507;50.392;7.482;2023-02-22T05:24:52;100638.63;;;6.15;83.95
4981;BME280;2507;50.392;7.482;2023-02-22T05:27:18;100651.34;;;6.22;83.85
4981;BME280;2507;50.392;7.482;2023-02-22T05:29:43;100631.50;;;6.19;82.51
4981;BME280;2507;50.392;7.482;2023-02-22T05:32:09;100645.84;;;6.10;82.72
4981;BME280;2507;50.392;7.482;2023-02-22T05:34:36;100641.94;;;6.02;83.43
4981;BME280;2507;50.392;7.482;2023-02-22T05:37:01;100641.25;;;5.98;83.93
4981;BME280;2507;50.392;7.482;2023-02-22T05:39:27;100645.31;;;6.37;83.37
4981;BME280;2507;50.392;7.482;2023-02-22T05:41:53;100645.75;;;6.45;81.29
4981;BME280;2507;50.392;7.482;2023-02-22T05:44:18;100641.69;;;6.24;81.50
4981;BME280;2507;50.392;7.482;2023-02-22T05:46:43;100640.34;;;5.99;82.00
4981;BME280;2507;50.392;7.482;2023-02-22T05:49:09;100634.97;;;5.68;83.20
4981;BME280;2507;50.392;7.482;2023-02-22T05:51:34;100636.06;;;5.47;85.14
4981;BME280;2507;50.392;7.482;2023-02-22T05:53:59;100643.75;;;5.32;85.24
4981;BME280;2507;50.392;7.482;2023-02-22T05:56:26;100648.88;;;5.16;86.22
4981;BME280;2507;50.392;7.482;2023-02-22T05:58:52;100648.59;;;5.03;87.07
4981;BME280;2507;50.392;7.482;2023-02-22T06:01:17;100659.44;;;4.94;87.71
4981;BME280;2507;50.392;7.482;2023-02-22T06:03:46;100643.41;;;4.85;88.53
4981;BME280;2507;50.392;7.482;2023-02-22T06:06:12;100641.34;;;5.10;88.80
4981;BME280;2507;50.392;7.482;2023-02-22T06:08:37;100639.84;;;5.40;88.24
4981;BME280;2507;50.392;7.482;2023-02-22T06:11:03;100632.00;;;5.76;86.55
4981;BME280;2507;50.392;7.482;2023-02-22T06:13:28;100632.44;;;5.67;85.23
4981;BME280;2507;50.392;7.482;2023-02-22T06:15:53;100639.25;;;5.52;85.33
4981;BME280;2507;50.392;7.482;2023-02-22T06:18:19;100638.09;;;5.41;85.74
4981;BME280;2507;50.392;7.482;2023-02-22T06:20:44;100631.75;;;5.46;85.88
4981;BME280;2507;50.392;7.482;2023-02-22T06:23:09;100633.53;;;5.63;85.81
4981;BME280;2507;50.392;7.482;2023-02-22T06:25:35;100635.28;;;5.79;83.99
4981;BME280;2507;50.392;7.482;2023-02-22T06:28:00;100631.38;;;5.71;83.99
4981;BME280;2507;50.392;7.482;2023-02-22T06:30:28;100632.41;;;5.85;84.26
4981;BME280;2507;50.392;7.482;2023-02-22T06:32:53;100638.41;;;6.03;83.17
4981;BME280;2507;50.392;7.482;2023-02-22T06:35:19;100643.56;;;6.20;82.61
4981;BME280;2507;50.392;7.482;2023-02-22T06:37:44;100628.72;;;6.22;80.84
4981;BME280;2507;50.392;7.482;2023-02-22T06:40:10;100634.88;;;6.37;79.76
4981;BME280;2507;50.392;7.482;2023-02-22T06:42:37;100631.47;;;6.52;77.36
4981;BME280;2507;50.392;7.482;2023-02-22T06:45:03;100638.44;;;6.51;76.68
4981;BME280;2507;50.392;7.482;2023-02-22T06:47:28;100644.06;;;6.44;76.64
4981;BME280;2507;50.392;7.482;2023-02-22T06:49:57;100640.91;;;6.22;76.80
4981;BME280;2507;50.392;7.482;2023-02-22T06:52:24;100636.75;;;5.85;77.94
4981;BME280;2507;50.392;7.482;2023-02-22T06:54:51;100638.88;;;5.77;79.34
4981;BME280;2507;50.392;7.482;2023-02-22T06:57:16;100640.47;;;5.79;80.47
4981;BME280;2507;50.392;7.482;2023-02-22T06:59:42;100635.56;;;6.07;79.07
4981;BME280;2507;50.392;7.482;2023-02-22T07:02:09;100641.03;;;5.86;79.04
4981;BME280;2507;50.392;7.482;2023-02-22T07:04:35;100640.78;;;5.73;79.29
4981;BME280;2507;50.392;7.482;2023-02-22T07:07:00;100664.91;;;5.60;80.39
4981;BME280;2507;50.392;7.482;2023-02-22T07:09:25;100653.16;;;5.87;81.08
4981;BME280;2507;50.392;7.482;2023-02-22T07:11:51;100650.28;;;6.08;79.70
4981;BME280;2507;50.392;7.482;2023-02-22T07:14:16;100661.81;;;6.20;79.51
4981;BME280;2507;50.392;7.482;2023-02-22T07:16:41;100651.16;;;6.25;78.48
4981;BME280;2507;50.392;7.482;2023-02-22T07:19:07;100667.97;;;6.19;78.70
4981;BME280;2507;50.392;7.482;2023-02-22T07:21:32;100661.56;;;6.09;78.53
4981;BME280;2507;50.392;7.482;2023-02-22T07:23:57;100656.47;;;5.72;80.06
4981;BME280;2507;50.392;7.482;2023-02-22T07:26:24;100660.09;;;5.52;81.04
4981;BME280;2507;50.392;7.482;2023-02-22T07:28:49;100659.97;;;5.19;82.15
4981;BME280;2507;50.392;7.482;2023-02-22T07:31:15;100669.78;;;5.13;82.41
4981;BME280;2507;50.392;7.482;2023-02-22T07:33:40;100665.16;;;5.19;82.13
4981;BME280;2507;50.392;7.482;2023-02-22T07:36:06;100668.66;;;5.18;82.88
4981;BME280;2507;50.392;7.482;2023-02-22T07:38:31;100666.25;;;5.33;82.97
4981;BME280;2507;50.392;7.482;2023-02-22T07:40:57;100672.16;;;5.36;81.77
4981;BME280;2507;50.392;7.482;2023-02-22T07:43:24;100666.28;;;5.67;82.06
4981;BME280;2507;50.392;7.482;2023-02-22T07:45:52;100670.06;;;5.95;81.14
4981;BME280;2507;50.392;7.482;2023-02-22T07:48:21;100694.47;;;6.10;80.29
4981;BME280;2507;50.392;7.482;2023-02-22T07:50:46;100667.19;;;6.50;78.37
4981;BME280;2507;50.392;7.482;2023-02-22T07:53:17;100667.28;;;6.48;76.89
4981;BME280;2507;50.392;7.482;2023-02-22T07:55:43;100662.38;;;6.42;77.92
4981;BME280;2507;50.392;7.482;2023-02-22T07:58:12;100664.75;;;6.47;78.25
4981;BME280;2507;50.392;7.482;2023-02-22T08:00:40;100652.13;;;6.39;77.94
4981;BME280;2507;50.392;7.482;2023-02-22T08:03:07;100668.03;;;6.17;78.68
4981;BME280;2507;50.392;7.482;2023-02-22T08:05:35;100662.09;;;6.31;78.95
4981;BME280;2507;50.392;7.482;2023-02-22T08:08:01;100655.69;;;6.54;78.91
4981;BME280;2507;50.392;7.482;2023-02-22T08:10:27;100667.66;;;6.73;77.66
4981;BME280;2507;50.392;7.482;2023-02-22T08:12:54;100669.75;;;6.82;77.02
4981;BME280;2507;50.392;7.482;2023-02-22T08:15:23;100645.03;;;6.74;76.20
4981;BME280;2507;50.392;7.482;2023-02-22T08:17:50;100645.25;;;6.69;76.13
4981;BME280;2507;50.392;7.482;2023-02-22T08:20:15;100647.41;;;6.46;77.08
4981;BME280;2507;50.392;7.482;2023-02-22T08:22:45;100651.97;;;6.42;78.00
4981;BME280;2507;50.392;7.482;2023-02-22T08:25:11;100649.47;;;6.56;78.49
4981;BME280;2507;50.392;7.482;2023-02-22T08:27:37;100643.84;;;6.95;76.87
4981;BME280;2507;50.392;7.482;2023-02-22T08:30:04;100648.56;;;6.88;76.35
4981;BME280;2507;50.392;7.482;2023-02-22T08:32:29;100662.25;;;6.61;77.61
4981;BME280;2507;50.392;7.482;2023-02-22T08:34:54;100649.84;;;6.81;78.11
4981;BME280;2507;50.392;7.482;2023-02-22T08:37:20;100635.19;;;6.63;77.33
4981;BME280;2507;50.392;7.482;2023-02-22T08:39:45;100643.06;;;6.46;78.52
4981;BME280;2507;50.392;7.482;2023-02-22T08:42:10;100634.25;;;6.95;78.48
4981;BME280;2507;50.392;7.482;2023-02-22T08:44:37;100622.38;;;7.21;76.63
4981;BME280;2507;50.392;7.482;2023-02-22T08:47:03;100613.91;;;7.32;76.16
4981;BME280;2507;50.392;7.482;2023-02-22T08:49:29;100612.09;;;7.48;76.27
4981;BME280;2507;50.392;7.482;2023-02-22T08:51:54;100619.09;;;7.91;74.93
4981;BME280;2507;50.392;7.482;2023-02-22T08:54:19;100619.03;;;8.06;73.50
4981;BME280;2507;50.392;7.482;2023-02-22T08:56:46;100615.47;;;8.07;73.46
4981;BME280;2507;50.392;7.482;2023-02-22T08:59:12;100614.88;;;8.32;73.01
4981;BME280;2507;50.392;7.482;2023-02-22T09:01:37;100623.13;;;7.96;73.38
4981;BME280;2507;50.392;7.482;2023-02-22T09:04:02;100612.63;;;7.68;75.25
4981;BME280;2507;50.392;7.482;2023-02-22T09:06:28;100605.94;;;7.19;77.08
4981;BME280;2507;50.392;7.482;2023-02-22T09:08:54;100610.28;;;6.89;78.96
4981;BME280;2507;50.392;7.482;2023-02-22T09:11:19;100603.41;;;6.72;80.04
4981;BME280;2507;50.392;7.482;2023-02-22T09:13:44;100602.97;;;6.64;81.46
4981;BME280;2507;50.392;7.482;2023-02-22T09:16:10;100590.50;;;6.69;81.89
4981;BME280;2507;50.392;7.482;2023-02-22T09:18:35;100597.03;;;7.07;81.69
4981;BME280;2507;50.392;7.482;2023-02-22T09:21:01;100605.81;;;7.66;79.32
4981;BME280;2507;50.392;7.482;2023-02-22T09:23:26;100598.19;;;7.91;77.79
4981;BME280;2507;50.392;7.482;2023-02-22T09:25:52;100600.09;;;8.03;76.80
4981;BME280;2507;50.392;7.482;2023-02-22T09:28:17;100597.66;;;8.14;75.29
4981;BME280;2507;50.392;7.482;2023-02-22T09:30:42;100610.53;;;8.03;76.43
4981;BME280;2507;50.392;7.482;2023-02-22T09:33:10;100598.03;;;7.80;76.75
4981;BME280;2507;50.392;7.482;2023-02-22T09:35:39;100596.69;;;7.73;77.50
4981;BME280;2507;50.392;7.482;2023-02-22T09:38:11;100598.81;;;7.66;78.00
4981;BME280;2507;50.392;7.482;2023-02-22T09:40:40;100588.03;;;7.72;78.68
4981;BME280;2507;50.392;7.482;2023-02-22T09:49:17;100585.97;;;8.05;79.30
4981;BME280;2507;50.392;7.482;2023-02-22T09:51:57;100584.09;;;8.64;76.79
4981;BME280;2507;50.392;7.482;2023-02-22T09:54:30;100583.50;;;8.87;74.42
4981;BME280;2507;50.392;7.482;2023-02-22T09:57:01;100586.84;;;8.89;73.33
4981;BME280;2507;50.392;7.482;2023-02-22T09:59:32;100588.81;;;9.12;73.55
4981;BME280;2507;50.392;7.482;2023-02-22T10:02:22;100582.03;;;9.61;71.93
4981;BME280;2507;50.392;7.482;2023-02-22T10:04:58;100582.06;;;10.11;69.18
4981;BME280;2507;50.392;7.482;2023-02-22T10:07:29;100575.63;;;10.03;68.22
4981;BME280;2507;50.392;7.482;2023-02-22T10:09:56;100573.44;;;9.72;69.00
4981;BME280;2507;50.392;7.482;2023-02-22T10:18:15;100569.66;;;9.51;71.19
4981;BME280;2507;50.392;7.482;2023-02-22T10:25:58;100571.38;;;9.25;70.67
4981;BME280;2507;50.392;7.482;2023-02-22T10:28:38;100563.63;;;8.70;73.61
4981;BME280;2507;50.392;7.482;2023-02-22T10:31:22;100563.63;;;8.70;73.45
4981;BME280;2507;50.392;7.482;2023-02-22T10:34:04;100563.75;;;8.69;74.50
4981;BME280;2507;50.392;7.482;2023-02-22T10:36:31;100549.91;;;8.93;74.27
4981;BME280;2507;50.392;7.482;2023-02-22T10:39:09;100561.09;;;9.35;71.92
4981;BME280;2507;50.392;7.482;2023-02-22T10:41:41;100550.97;;;9.43;72.55
4981;BME280;2507;50.392;7.482;2023-02-22T10:44:09;100550.16;;;10.17;69.47
4981;BME280;2507;50.392;7.482;2023-02-22T10:46:34;100551.81;;;10.67;67.36
4981;BME280;2507;50.392;7.482;2023-02-22T10:49:02;100545.34;;;10.60;67.30
4981;BME280;2507;50.392;7.482;2023-02-22T10:51:29;100546.44;;;10.45;67.93
4981;BME280;2507;50.392;7.482;2023-02-22T10:54:17;100551.66;;;10.21;68.80
4981;BME280;2507;50.392;7.482;2023-02-22T10:56:47;100550.28;;;10.16;69.47
4981;BME280;2507;50.392;7.482;2023-02-22T10:59:25;100545.66;;;10.19;69.75
4981;BME280;2507;50.392;7.482;2023-02-22T11:01:51;100547.28;;;10.33;69.40
4981;BME280;2507;50.392;7.482;2023-02-22T11:04:18;100546.91;;;10.86;67.68
4981;BME280;2507;50.392;7.482;2023-02-22T11:06:48;100541.97;;;10.58;67.79
4981;BME280;2507;50.392;7.482;2023-02-22T11:09:18;100543.75;;;10.70;68.28
4981;BME280;2507;50.392;7.482;2023-02-22T11:11:47;100530.78;;;10.80;67.39
4981;BME280;2507;50.392;7.482;2023-02-22T11:14:28;100528.59;;;10.50;68.46
4981;BME280;2507;50.392;7.482;2023-02-22T11:16:55;100526.41;;;10.91;67.03
4981;BME280;2507;50.392;7.482;2023-02-22T11:19:24;100526.56;;;11.24;65.43
4981;BME280;2507;50.392;7.482;2023-02-22T11:21:52;100514.88;;;11.28;66.16
4981;BME280;2507;50.392;7.482;2023-02-22T11:24:20;100523.84;;;11.37;66.13
4981;BME280;2507;50.392;7.482;2023-02-22T11:26:50;100512.84;;;11.67;65.05
4981;BME280;2507;50.392;7.482;2023-02-22T11:29:20;100512.00;;;11.77;64.76
4981;BME280;2507;50.392;7.482;2023-02-22T11:31:47;100507.09;;;12.28;63.94
4981;BME280;2507;50.392;7.482;2023-02-22T11:34:38;100499.31;;;12.38;62.76
4981;BME280;2507;50.392;7.482;2023-02-22T11:37:32;100502.56;;;12.08;63.76
4981;BME280;2507;50.392;7.482;2023-02-22T11:40:06;100495.31;;;11.32;66.45
4981;BME280;2507;50.392;7.482;2023-02-22T11:42:31;100494.53;;;10.85;68.03
4981;BME280;2507;50.392;7.482;2023-02-22T11:45:14;100489.84;;;10.77;69.38
4981;BME280;2507;50.392;7.482;2023-02-22T11:47:54;100482.63;;;11.26;69.19
4981;BME280;2507;50.392;7.482;2023-02-22T11:53:14;100480.28;;;11.57;66.58
4981;BME280;2507;50.392;7.482;2023-02-22T11:59:02;100471.22;;;12.27;64.24
4981;BME280;2507;50.392;7.482;2023-02-22T12:01:53;100466.69;;;12.18;64.39
4981;BME280;2507;50.392;7.482;2023-02-22T12:12:44;100459.59;;;12.29;64.71
4981;BME280;2507;50.392;7.482;2023-02-22T12:15:22;100455.00;;;12.00;66.03
4981;BME280;2507;50.392;7.482;2023-02-22T12:18:00;100448.25;;;12.29;65.11
4981;BME280;2507;50.392;7.482;2023-02-22T12:20:49;100444.56;;;12.63;64.53
4981;BME280;2507;50.392;7.482;2023-02-22T12:23:29;100439.63;;;12.70;63.95
4981;BME280;2507;50.392;7.482;2023-02-22T12:26:09;100439.13;;;12.96;63.05
4981;BME280;2507;50.392;7.482;2023-02-22T12:28:39;100446.06;;;12.97;63.52
4981;BME280;2507;50.392;7.482;2023-02-22T12:34:15;100430.81;;;13.32;62.25
4981;BME280;2507;50.392;7.482;2023-02-22T12:42:33;100425.94;;;12.76;64.19
4981;BME280;2507;50.392;7.482;2023-02-22T12:45:10;100415.38;;;13.07;64.49
4981;BME280;2507;50.392;7.482;2023-02-22T12:47:48;100414.53;;;13.88;60.91
4981;BME280;2507;50.392;7.482;2023-02-22T12:50:22;100415.59;;;14.25;60.63
4981;BME280;2507;50.392;7.482;2023-02-22T12:55:35;100412.16;;;14.82;58.78
4981;BME280;2507;50.392;7.482;2023-02-22T12:58:29;100438.56;;;14.44;60.34
4981;BME280;2507;50.392;7.482;2023-02-22T13:01:00;100408.31;;;13.89;61.94
4981;BME280;2507;50.392;7.482;2023-02-22T13:03:39;100404.88;;;13.68;62.89
4981;BME280;2507;50.392;7.482;2023-02-22T13:06:39;100406.41;;;14.10;61.80
4981;BME280;2507;50.392;7.482;2023-02-22T13:11:41;100397.00;;;14.93;58.71
4981;BME280;2507;50.392;7.482;2023-02-22T13:17:02;100394.69;;;15.36;58.45
4981;BME280;2507;50.392;7.482;2023-02-22T13:19:41;100391.63;;;15.51;58.00
4981;BME280;2507;50.392;7.482;2023-02-22T13:22:31;100379.81;;;15.35;58.32
4981;BME280;2507;50.392;7.482;2023-02-22T13:25:14;100379.06;;;14.87;59.77
4981;BME280;2507;50.392;7.482;2023-02-22T13:27:52;100379.50;;;14.73;60.67
4981;BME280;2507;50.392;7.482;2023-02-22T13:30:29;100373.41;;;14.63;61.12
4981;BME280;2507;50.392;7.482;2023-02-22T13:44:32;100357.63;;;15.56;58.51
4981;BME280;2507;50.392;7.482;2023-02-22T13:52:27;100350.06;;;15.61;58.69
4981;BME280;2507;50.392;7.482;2023-02-22T13:54:59;100357.31;;;15.59;58.92
4981;BME280;2507;50.392;7.482;2023-02-22T13:57:34;100352.28;;;15.28;59.64
4981;BME280;2507;50.392;7.482;2023-02-22T14:10:59;100347.41;;;15.24;60.14
4981;BME280;2507;50.392;7.482;2023-02-22T14:13:30;100347.03;;;15.19;60.48
4981;BME280;2507;50.392;7.482;2023-02-22T14:18:40;100352.09;;;15.76;59.20
4981;BME280;2507;50.392;7.482;2023-02-22T14:21:16;100343.97;;;16.05;58.16
4981;BME280;2507;50.392;7.482;2023-02-22T14:23:44;100342.03;;;16.24;58.17
4981;BME280;2507;50.392;7.482;2023-02-22T14:26:35;100342.16;;;16.41;57.02
4981;BME280;2507;50.392;7.482;2023-02-22T14:29:16;100340.91;;;16.27;57.32
4981;BME280;2507;50.392;7.482;2023-02-22T14:34:13;100337.69;;;16.06;57.95
4981;BME280;2507;50.392;7.482;2023-02-22T14:37:02;100320.38;;;15.94;57.97
4981;BME280;2507;50.392;7.482;2023-02-22T14:39:45;100327.56;;;16.19;57.67
4981;BME280;2507;50.392;7.482;2023-02-22T14:48:05;100327.47;;;15.93;59.28
4981;BME280;2507;50.392;7.482;2023-02-22T14:55:41;100334.78;;;15.55;59.31
4981;BME280;2507;50.392;7.482;2023-02-22T14:58:24;100327.50;;;15.66;59.42
4981;BME280;2507;50.392;7.482;2023-02-22T15:00:53;100329.91;;;15.60;59.12
4981;BME280;2507;50.392;7.482;2023-02-22T15:05:46;100329.19;;;15.85;59.51
4981;BME280;2507;50.392;7.482;2023-02-22T15:08:14;100327.31;;;15.95;60.14
4981;BME280;2507;50.392;7.482;2023-02-22T15:10:44;100328.91;;;15.61;60.22
4981;BME280;2507;50.392;7.482;2023-02-22T15:13:22;100324.16;;;15.64;60.62
4981;BME280;2507;50.392;7.482;2023-02-22T15:15:57;100330.41;;;15.90;59.73
4981;BME280;2507;50.392;7.482;2023-02-22T15:18:45;100318.03;;;15.91;58.87
4981;BME280;2507;50.392;7.482;2023-02-22T15:21:16;100321.78;;;15.71;59.49
4981;BME280;2507;50.392;7.482;2023-02-22T15:23:50;100321.16;;;15.77;59.79
4981;BME280;2507;50.392;7.482;2023-02-22T15:26:24;100317.81;;;15.75;59.68
4981;BME280;2507;50.392;7.482;2023-02-22T15:28:55;100317.56;;;15.95;59.00
4981;BME280;2507;50.392;7.482;2023-02-22T15:31:23;100320.22;;;16.13;58.32
4981;BME280;2507;50.392;7.482;2023-02-22T15:33:51;100325.81;;;16.10;58.80
4981;BME280;2507;50.392;7.482;2023-02-22T15:36:18;100324.06;;;16.18;59.18
4981;BME280;2507;50.392;7.482;2023-02-22T15:38:52;100325.06;;;16.35;57.49
4981;BME280;2507;50.392;7.482;2023-02-22T15:41:31;100328.16;;;16.13;56.07
4981;BME280;2507;50.392;7.482;2023-02-22T15:44:06;100315.44;;;15.99;55.82
4981;BME280;2507;50.392;7.482;2023-02-22T15:46:32;100318.47;;;16.04;56.38